createdAt,value
2019-05-12T00:01:39.322Z,84.20
2019-05-12T00:04:19.005Z,84.50
2019-05-12T00:07:14.556Z,84.10
2019-05-12T00:09:53.939Z,83.90
2019-05-12T00:12:27.797Z,84.00
2019-05-12T00:18:08.842Z,84.50
2019-05-12T00:20:39.529Z,84.30
2019-05-12T00:23:23.877Z,84.30
2019-05-12T00:25:42.675Z,84.60
2019-05-12T00:28:13.081Z,85.30
2019-05-12T00:30:44.651Z,86.40
2019-05-12T00:33:14.724Z,85.80
2019-05-12T00:35:48.281Z,85.90
2019-05-12T00:38:18.077Z,85.90
2019-05-12T00:40:49.278Z,85.50
2019-05-12T00:43:19.049Z,85.70
2019-05-12T00:45:48.871Z,85.90
2019-05-12T00:48:18.966Z,86.50
2019-05-12T00:50:49.360Z,86.40
2019-05-12T00:53:29.225Z,87.10
2019-05-12T00:55:52.673Z,87.60
2019-05-12T00:58:27.734Z,87.80
2019-05-12T01:01:03.142Z,87.30
2019-05-12T01:03:33.346Z,87.60
2019-05-12T01:06:03.262Z,87.70
2019-05-12T01:08:35.477Z,87.80
2019-05-12T01:11:08.730Z,88.00
2019-05-12T01:14:00.578Z,88.30
2019-05-12T01:16:39.431Z,89.00
2019-05-12T01:26:12.579Z,89.30
2019-05-12T01:32:18.241Z,89.60
2019-05-12T01:38:22.060Z,90.00
2019-05-12T01:47:41.447Z,90.00
2019-05-12T01:50:28.205Z,90.10
2019-05-12T01:53:13.443Z,90.00
2019-05-12T01:55:51.739Z,90.40
2019-05-12T01:58:23.633Z,90.50
2019-05-12T02:01:02.931Z,90.40
2019-05-12T02:04:21.289Z,90.30
2019-05-12T02:06:58.884Z,90.30
2019-05-12T02:09:38.530Z,90.20
2019-05-12T02:12:14.946Z,90.50
2019-05-12T02:15:01.752Z,90.60
2019-05-12T02:27:10.194Z,90.70
2019-05-12T02:30:09.816Z,90.70
2019-05-12T02:32:49.615Z,90.10
2019-05-12T02:35:16.133Z,89.00
2019-05-12T02:37:55.064Z,88.60
2019-05-12T02:40:36.632Z,88.50
2019-05-12T02:46:45.846Z,88.30
2019-05-12T02:49:39.159Z,88.00
2019-05-12T02:55:25.374Z,87.60
2019-05-12T02:57:58.784Z,87.30
2019-05-12T03:00:36.356Z,87.10
2019-05-12T03:03:08.867Z,87.20
2019-05-12T03:05:40.229Z,87.30
2019-05-12T03:08:09.837Z,87.40
2019-05-12T03:10:44.877Z,87.90
2019-05-12T03:13:15.047Z,88.20
2019-05-12T03:15:51.054Z,88.10
2019-05-12T03:18:25.068Z,88.40
2019-05-12T03:21:08.338Z,88.10
2019-05-12T03:23:49.330Z,88.20
2019-05-12T03:26:34.686Z,87.90
2019-05-12T03:29:25.053Z,87.40
2019-05-12T03:32:00.128Z,87.40
2019-05-12T03:34:30.213Z,87.10
2019-05-12T03:37:07.770Z,87.10
2019-05-12T03:39:35.799Z,86.90
2019-05-12T03:42:39.513Z,86.90
2019-05-12T03:51:55.624Z,87.00
2019-05-12T03:54:25.784Z,87.10
2019-05-12T03:56:56.203Z,87.40
2019-05-12T04:10:15.610Z,88.70
2019-05-12T04:35:45.631Z,91.20
2019-05-12T05:21:01.049Z,83.30
2019-05-12T05:23:36.005Z,82.90
2019-05-12T05:26:20.975Z,83.00
2019-05-12T05:28:43.530Z,82.20
2019-05-12T05:34:52.088Z,81.50
2019-05-12T05:37:18.498Z,82.80
2019-05-12T05:39:53.953Z,82.80
2019-05-12T05:42:32.914Z,83.20
2019-05-12T05:45:00.061Z,83.90
2019-05-12T05:47:29.379Z,84.20
2019-05-12T05:49:58.797Z,83.50
2019-05-12T05:52:32.994Z,81.70
2019-05-12T05:55:05.701Z,80.60
2019-05-12T05:57:33.662Z,81.10
2019-05-12T06:00:07.292Z,81.20
2019-05-12T06:02:40.194Z,80.70
2019-05-12T06:05:08.949Z,80.30
2019-05-12T06:07:39.230Z,80.50
2019-05-12T06:10:08.994Z,80.10
2019-05-12T06:12:40.413Z,79.60
2019-05-12T06:15:09.619Z,79.00
2019-05-12T06:17:39.223Z,78.20
2019-05-12T06:20:09.188Z,77.80
2019-05-12T06:22:38.531Z,77.50
2019-05-12T06:25:08.244Z,76.80
2019-05-12T06:27:37.565Z,75.80
2019-05-12T06:30:09.448Z,75.70
2019-05-12T06:32:41.187Z,76.20
2019-05-12T06:35:10.147Z,75.90
2019-05-12T06:37:39.607Z,75.50
2019-05-12T06:40:09.055Z,74.70
2019-05-12T06:42:38.607Z,75.20
2019-05-12T06:45:08.315Z,76.70
2019-05-12T06:47:39.339Z,75.40
2019-05-12T06:50:08.952Z,74.10
2019-05-12T06:52:38.549Z,73.40
2019-05-12T06:55:09.483Z,73.70
2019-05-12T06:57:39.987Z,72.80
2019-05-12T07:00:10.611Z,72.10
2019-05-12T07:02:49.258Z,70.70
2019-05-12T07:05:11.091Z,70.10
2019-05-12T07:07:44.285Z,70.30
2019-05-12T07:10:26.824Z,70.30
2019-05-12T07:12:58.267Z,71.10
2019-05-12T07:15:14.579Z,72.60
2019-05-12T07:17:49.760Z,73.40
2019-05-12T07:20:17.086Z,73.40
2019-05-12T07:22:48.594Z,73.30
2019-05-12T07:25:24.521Z,72.80
2019-05-12T07:27:55.263Z,72.40
2019-05-12T07:30:31.853Z,73.10
2019-05-12T07:33:01.435Z,72.00
2019-05-12T07:35:33.833Z,71.50
2019-05-12T07:38:04.599Z,71.80
2019-05-12T07:40:37.388Z,71.30
2019-05-12T07:43:09.887Z,71.20
2019-05-12T07:45:38.894Z,70.80
2019-05-12T07:48:10.335Z,70.80
2019-05-12T07:50:39.732Z,71.40
2019-05-12T07:53:09.070Z,69.50
2019-05-12T07:55:39.822Z,66.60
2019-05-12T07:58:14.026Z,70.00
2019-05-12T08:00:40.755Z,71.20
2019-05-12T08:03:16.117Z,68.70
2019-05-12T08:05:43.773Z,67.50
2019-05-12T08:08:14.441Z,67.70
2019-05-12T08:10:44.294Z,65.80
2019-05-12T08:13:18.475Z,65.70
2019-05-12T08:15:50.179Z,61.60
2019-05-12T08:18:17.353Z,59.90
2019-05-12T08:20:46.715Z,55.80
2019-05-12T08:23:16.279Z,54.90
2019-05-12T08:25:45.851Z,53.10
2019-05-12T08:28:18.967Z,52.20
2019-05-12T08:30:52.059Z,52.50
2019-05-12T08:33:17.538Z,53.70
2019-05-12T08:35:47.243Z,52.80
2019-05-12T08:38:16.591Z,53.90
2019-05-12T08:40:50.805Z,52.90
2019-05-12T08:43:17.199Z,54.10
2019-05-12T08:45:46.787Z,52.10
2019-05-12T08:48:21.445Z,51.90
2019-05-12T08:50:47.150Z,52.10
2019-05-12T08:53:20.669Z,53.10
2019-05-12T08:55:47.485Z,51.90
2019-05-12T08:58:30.113Z,52.40
2019-05-12T09:00:50.372Z,50.80
2019-05-12T09:03:20.364Z,49.70
2019-05-12T09:05:50.625Z,49.70
2019-05-12T09:08:21.442Z,49.80
2019-05-12T09:10:54.750Z,48.30
2019-05-12T09:13:25.122Z,48.90
2019-05-12T09:15:54.473Z,47.80
2019-05-12T09:18:33.678Z,48.40
2019-05-12T09:20:55.910Z,49.30
2019-05-12T09:23:32.879Z,48.00
2019-05-12T09:26:03.715Z,46.80
2019-05-12T09:28:46.460Z,46.20
2019-05-12T09:31:07.244Z,47.70
2019-05-12T09:33:37.113Z,43.60
2019-05-12T09:36:11.323Z,43.50
2019-05-12T09:38:41.035Z,41.80
2019-05-12T09:41:10.605Z,43.70
2019-05-12T09:43:45.182Z,43.10
2019-05-12T09:46:11.302Z,45.40
2019-05-12T09:48:46.916Z,46.50
2019-05-12T09:51:13.385Z,47.20
2019-05-12T09:53:50.814Z,48.90
2019-05-12T09:56:14.233Z,48.30
2019-05-12T09:58:58.018Z,48.20
2019-05-12T10:01:15.223Z,47.60
2019-05-12T10:03:44.772Z,46.70
2019-05-12T10:06:18.018Z,46.10
2019-05-12T10:08:48.890Z,45.60
2019-05-12T10:11:20.753Z,45.40
2019-05-12T10:13:49.508Z,44.40
2019-05-12T10:16:19.131Z,45.20
2019-05-12T10:18:51.150Z,43.10
2019-05-12T10:21:19.715Z,44.50
2019-05-12T10:23:51.694Z,44.60
2019-05-12T10:26:20.039Z,43.20
2019-05-12T10:28:57.867Z,41.80
2019-05-12T10:31:20.694Z,41.20
2019-05-12T10:33:56.549Z,39.50
2019-05-12T10:36:21.679Z,40.40
2019-05-12T10:38:51.224Z,42.60
2019-05-12T10:41:21.004Z,41.90
2019-05-12T10:43:54.427Z,41.90
2019-05-12T10:46:26.934Z,41.40
2019-05-12T10:48:53.893Z,40.40
2019-05-12T10:51:24.247Z,41.50
2019-05-12T10:53:59.821Z,42.50
2019-05-12T10:56:24.599Z,42.40
2019-05-12T10:58:54.152Z,43.60
2019-05-12T11:01:24.339Z,42.30
2019-05-12T11:03:53.851Z,41.60
2019-05-12T11:06:24.481Z,42.00
2019-05-12T11:08:54.242Z,42.00
2019-05-12T11:11:24.162Z,42.50
2019-05-12T11:13:53.882Z,41.30
2019-05-12T11:16:30.840Z,41.00
2019-05-12T11:18:55.009Z,39.00
2019-05-12T11:21:24.398Z,39.30
2019-05-12T11:24:03.938Z,39.70
2019-05-12T11:26:43.255Z,39.30
2019-05-12T11:29:14.844Z,39.70
2019-05-12T11:31:45.226Z,40.60
2019-05-12T11:34:14.616Z,40.20
2019-05-12T11:36:44.402Z,38.70
2019-05-12T11:39:14.311Z,37.90
2019-05-12T11:41:44.438Z,38.10
2019-05-12T11:44:13.984Z,38.70
2019-05-12T11:46:44.123Z,39.40
2019-05-12T11:49:13.905Z,38.80
2019-05-12T11:51:43.477Z,34.00
2019-05-12T11:54:13.694Z,31.60
2019-05-12T11:56:46.483Z,31.00
2019-05-12T11:59:14.459Z,28.30
2019-05-12T12:01:47.604Z,28.00
2019-05-12T12:04:15.710Z,26.70
2019-05-12T12:06:45.263Z,26.20
2019-05-12T12:09:18.755Z,24.00
2019-05-12T12:11:45.931Z,25.20
2019-05-12T12:14:15.615Z,29.00
2019-05-12T12:16:50.188Z,29.70
2019-05-12T12:19:16.265Z,27.90
2019-05-12T12:21:49.908Z,27.00
2019-05-12T12:24:21.249Z,26.90
2019-05-12T12:26:50.181Z,27.70
2019-05-12T12:29:19.812Z,28.90
2019-05-12T12:31:53.952Z,31.40
2019-05-12T12:34:29.552Z,33.90
2019-05-12T12:36:54.650Z,35.40
2019-05-12T12:39:24.114Z,36.50
2019-05-12T12:41:59.518Z,37.00
2019-05-12T12:44:24.707Z,36.80
2019-05-12T12:46:59.922Z,37.60
2019-05-12T12:49:29.121Z,37.60
2019-05-12T12:51:57.461Z,36.60
2019-05-12T12:54:27.033Z,36.30
2019-05-12T12:57:00.071Z,36.40
2019-05-12T12:59:27.619Z,38.10
2019-05-12T13:01:59.225Z,38.40
2019-05-12T13:04:28.913Z,38.20
2019-05-12T13:06:58.608Z,40.00
2019-05-12T13:09:28.179Z,40.80
2019-05-12T13:11:57.498Z,40.60
2019-05-12T13:14:28.529Z,41.50
2019-05-12T13:16:58.072Z,40.60
2019-05-12T13:19:27.635Z,34.20
2019-05-12T13:21:57.183Z,28.70
2019-05-12T13:24:26.578Z,27.30
2019-05-12T13:26:56.156Z,26.00
2019-05-12T13:29:34.476Z,26.60
2019-05-12T13:31:57.723Z,23.10
2019-05-12T13:34:28.878Z,25.30
2019-05-12T13:36:58.544Z,28.70
2019-05-12T13:39:28.477Z,31.10
2019-05-12T13:42:00.220Z,32.20
2019-05-12T13:44:30.329Z,34.10
2019-05-12T13:47:03.219Z,36.30
2019-05-12T13:49:38.382Z,38.80
2019-05-12T13:52:04.299Z,39.20
2019-05-12T13:54:34.105Z,39.70
2019-05-12T13:57:11.712Z,40.50
2019-05-12T13:59:36.732Z,40.80
2019-05-12T14:02:06.550Z,40.90
2019-05-12T14:04:35.858Z,40.60
2019-05-12T14:07:09.235Z,41.00
2019-05-12T14:09:36.246Z,42.00
2019-05-12T14:12:09.460Z,41.70
2019-05-12T14:14:38.784Z,38.90
2019-05-12T14:17:08.406Z,36.10
2019-05-12T14:19:37.739Z,38.70
2019-05-12T14:22:07.057Z,40.50
2019-05-12T14:24:41.979Z,41.90
2019-05-12T14:27:07.732Z,40.90
2019-05-12T14:29:37.100Z,39.70
2019-05-12T14:32:06.423Z,36.10
2019-05-12T14:34:35.800Z,30.80
2019-05-12T14:37:10.049Z,25.80
2019-05-12T14:39:40.102Z,25.10
2019-05-12T14:42:07.708Z,22.40
2019-05-12T14:44:43.981Z,23.00
2019-05-12T14:47:08.617Z,24.80
2019-05-12T14:49:37.931Z,26.80
2019-05-12T14:52:07.493Z,26.30
2019-05-12T14:54:37.641Z,29.60
2019-05-12T14:57:07.997Z,27.80
2019-05-12T15:02:34.964Z,24.80
2019-05-12T15:05:10.616Z,22.60
2019-05-12T15:07:42.507Z,23.30
2019-05-12T15:10:08.995Z,22.50
2019-05-12T15:12:38.665Z,21.00
2019-05-12T15:15:09.033Z,20.50
2019-05-12T15:17:39.711Z,22.60
2019-05-12T15:20:10.718Z,25.20
2019-05-12T15:22:43.003Z,28.70
2019-05-12T15:25:14.567Z,30.30
2019-05-12T15:27:46.098Z,32.30
2019-05-12T15:30:22.285Z,34.30
2019-05-12T15:32:47.331Z,35.20
2019-05-12T15:35:18.493Z,36.20
2019-05-12T15:37:48.075Z,37.50
2019-05-12T15:40:17.744Z,37.80
2019-05-12T15:42:47.212Z,37.60
2019-05-12T15:45:17.872Z,36.80
2019-05-12T15:47:47.440Z,33.50
2019-05-12T15:50:17.881Z,29.20
2019-05-12T15:52:47.338Z,27.20
2019-05-12T15:55:18.323Z,25.60
2019-05-12T15:57:48.004Z,28.10
2019-05-12T16:00:18.978Z,30.00
2019-05-12T16:02:48.296Z,32.70
2019-05-12T16:05:20.217Z,34.80
2019-05-12T16:07:48.980Z,36.40
2019-05-12T16:10:18.446Z,37.00
2019-05-12T16:12:47.826Z,37.80
2019-05-12T16:15:19.215Z,39.00
2019-05-12T16:17:48.547Z,39.50
2019-05-12T16:20:19.198Z,40.60
2019-05-12T16:22:48.550Z,40.90
2019-05-12T16:25:20.719Z,40.60
2019-05-12T16:27:49.400Z,40.60
2019-05-12T16:30:20.312Z,42.10
2019-05-12T16:32:49.955Z,43.10
2019-05-12T16:35:26.435Z,42.90
2019-05-12T16:37:50.669Z,43.10
2019-05-12T16:40:20.070Z,40.50
2019-05-12T16:42:53.575Z,35.80
2019-05-12T16:45:23.320Z,32.00
2019-05-12T16:47:53.644Z,34.10
2019-05-12T16:50:25.371Z,35.30
2019-05-12T16:52:54.159Z,37.30
2019-05-12T16:55:44.843Z,38.60
2019-05-12T16:58:07.243Z,39.50
2019-05-12T17:00:39.604Z,40.30
2019-05-12T17:03:11.209Z,41.60
2019-05-12T17:05:40.855Z,42.30
2019-05-12T17:08:13.936Z,42.90
2019-05-12T17:10:56.549Z,42.50
2019-05-12T17:13:18.057Z,43.00
2019-05-12T17:15:48.727Z,43.80
2019-05-12T17:18:18.846Z,43.60
2019-05-12T17:20:54.595Z,44.00
2019-05-12T17:23:24.722Z,44.10
2019-05-12T17:25:54.483Z,44.60
2019-05-12T17:28:24.005Z,44.20
2019-05-12T17:30:54.649Z,44.60
2019-05-12T17:33:27.454Z,45.90
2019-05-12T17:35:55.432Z,45.70
2019-05-12T17:38:25.487Z,46.10
2019-05-12T17:40:59.291Z,47.10
2019-05-12T17:43:26.336Z,47.40
2019-05-12T17:46:01.194Z,48.20
2019-05-12T17:48:27.266Z,48.50
2019-05-12T17:50:56.608Z,48.80
2019-05-12T17:53:30.561Z,49.20
2019-05-12T17:55:57.556Z,50.10
2019-05-12T17:58:29.649Z,50.60
2019-05-12T18:00:57.992Z,50.60
2019-05-12T18:03:27.682Z,50.80
2019-05-12T18:05:56.995Z,50.50
2019-05-12T18:08:32.452Z,51.30
2019-05-12T18:10:57.737Z,50.50
2019-05-12T18:13:28.258Z,51.30
2019-05-12T18:16:02.931Z,51.20
2019-05-12T18:18:32.735Z,51.40
2019-05-12T18:21:21.720Z,51.10
2019-05-12T18:23:48.670Z,50.90
2019-05-12T18:26:20.307Z,51.10
2019-05-12T18:28:50.616Z,51.00
2019-05-12T18:31:19.984Z,51.40
2019-05-12T18:33:53.632Z,51.10
2019-05-12T18:36:23.614Z,51.70
2019-05-12T18:39:03.812Z,52.00
2019-05-12T18:41:26.341Z,52.30
2019-05-12T18:43:55.837Z,52.50
2019-05-12T18:46:25.438Z,52.90
2019-05-12T18:49:02.994Z,53.30
2019-05-12T18:51:25.982Z,54.00
2019-05-12T18:53:57.823Z,54.40
2019-05-12T18:56:26.416Z,55.10
2019-05-12T18:58:57.057Z,55.70
2019-05-12T19:01:28.507Z,56.50
2019-05-12T19:03:58.383Z,57.00
2019-05-12T19:06:28.111Z,57.70
2019-05-12T19:08:57.579Z,57.90
2019-05-12T19:11:41.888Z,58.10
2019-05-12T19:17:26.566Z,58.40
2019-05-12T19:20:00.014Z,57.90
2019-05-12T19:22:30.430Z,58.30
2019-05-12T19:25:07.361Z,58.00
2019-05-12T19:27:39.923Z,58.30
2019-05-12T19:30:19.324Z,58.40
2019-05-12T19:32:46.314Z,57.80
2019-05-12T19:35:20.114Z,57.30
2019-05-12T19:37:47.235Z,57.60
2019-05-12T19:40:18.474Z,57.60
2019-05-12T19:42:53.771Z,57.40
2019-05-12T19:45:24.949Z,57.40
2019-05-12T19:47:56.124Z,57.50
2019-05-12T19:50:35.436Z,57.80
2019-05-12T19:53:04.160Z,57.70
2019-05-12T19:55:33.833Z,58.00
2019-05-12T19:58:11.158Z,58.00
2019-05-12T20:00:34.233Z,58.10
2019-05-12T20:03:05.513Z,58.20
2019-05-12T20:05:37.112Z,58.30
2019-05-12T20:08:06.919Z,58.60
2019-05-12T20:10:44.864Z,58.60
2019-05-12T20:13:07.911Z,58.70
2019-05-12T20:15:40.995Z,59.00
2019-05-12T20:18:09.923Z,59.40
2019-05-12T20:20:43.971Z,60.00
2019-05-12T20:23:10.260Z,60.60
2019-05-12T20:25:39.566Z,61.30
2019-05-12T20:31:27.436Z,62.40
2019-05-12T20:40:05.753Z,63.30
2019-05-12T20:43:07.362Z,63.60
2019-05-12T20:45:40.813Z,64.40
2019-05-12T20:48:36.532Z,64.60
2019-05-12T20:51:20.061Z,64.60
2019-05-12T20:54:14.059Z,64.80
2019-05-12T20:57:09.211Z,65.10
2019-05-12T20:59:44.753Z,65.10
2019-05-12T21:02:23.438Z,65.20
2019-05-12T21:05:14.873Z,65.40
2019-05-12T21:07:47.336Z,65.30
2019-05-12T21:13:34.524Z,66.00
2019-05-12T21:16:54.193Z,66.80
2019-05-12T21:19:21.172Z,66.90
2019-05-12T21:21:59.003Z,67.30
2019-05-12T21:24:39.136Z,67.30
2019-05-12T21:27:09.406Z,67.50
2019-05-12T21:29:43.718Z,67.50
2019-05-12T21:32:16.699Z,67.80
2019-05-12T21:34:57.629Z,67.90
2019-05-12T21:37:45.696Z,68.10
2019-05-12T21:43:59.863Z,68.90
2019-05-12T21:46:56.706Z,69.50
2019-05-12T21:53:17.415Z,70.50
2019-05-12T21:58:57.920Z,71.10
2019-05-12T22:01:35.149Z,71.10
2019-05-12T22:04:41.001Z,71.50
2019-05-12T22:16:08.886Z,73.00
2019-05-12T22:22:38.256Z,74.20
2019-05-12T22:31:57.304Z,73.40
2019-05-12T22:37:53.644Z,74.00
2019-05-12T22:40:39.817Z,74.20
2019-05-12T22:43:40.829Z,74.00
2019-05-12T22:47:03.491Z,74.60
2019-05-12T22:49:27.096Z,74.80
2019-05-12T22:52:02.823Z,74.90
2019-05-12T22:54:27.760Z,74.70
2019-05-12T22:56:57.376Z,74.90
2019-05-12T22:59:32.062Z,75.10
2019-05-12T23:01:58.061Z,75.10
2019-05-12T23:04:35.532Z,75.30
2019-05-12T23:06:58.406Z,75.50
2019-05-12T23:09:30.024Z,75.60
2019-05-12T23:11:59.028Z,75.10
2019-05-12T23:14:28.332Z,75.20
2019-05-12T23:17:00.010Z,75.10
2019-05-12T23:19:29.246Z,74.90
2019-05-12T23:21:59.065Z,75.50
2019-05-12T23:24:30.323Z,75.80
2019-05-12T23:26:59.557Z,75.80
2019-05-12T23:29:31.038Z,76.10
2019-05-12T23:32:00.685Z,76.70
2019-05-12T23:34:33.707Z,77.00
2019-05-12T23:37:03.778Z,77.10
2019-05-12T23:39:38.247Z,78.20
2019-05-12T23:42:04.941Z,77.60
2019-05-12T23:44:34.263Z,78.00
2019-05-12T23:47:04.425Z,78.30
2019-05-12T23:49:33.986Z,78.40
2019-05-12T23:52:03.997Z,78.30
2019-05-12T23:54:34.467Z,78.70
2019-05-12T23:57:04.103Z,78.90
2019-05-12T23:59:33.650Z,79.20
